createdAt,value
2018-11-03T00:01:12.381Z,13.70
2018-11-03T00:03:42.518Z,13.70
2018-11-03T00:06:12.401Z,13.70
2018-11-03T00:08:42.350Z,13.70
2018-11-03T00:11:12.558Z,13.80
2018-11-03T00:13:42.577Z,13.80
2018-11-03T00:16:12.578Z,13.80
2018-11-03T00:18:42.658Z,13.80
2018-11-03T00:21:16.560Z,13.80
2018-11-03T00:23:46.441Z,13.80
2018-11-03T00:26:16.318Z,13.80
2018-11-03T00:28:46.417Z,13.80
2018-11-03T00:31:16.420Z,13.80
2018-11-03T00:33:46.678Z,13.70
2018-11-03T00:36:16.418Z,13.70
2018-11-03T00:38:46.235Z,13.70
2018-11-03T00:41:15.961Z,13.70
2018-11-03T00:43:46.423Z,13.70
2018-11-03T00:46:16.322Z,13.70
2018-11-03T00:48:46.302Z,13.70
2018-11-03T00:51:17.004Z,13.70
2018-11-03T00:53:47.022Z,13.80
2018-11-03T00:56:17.120Z,13.80
2018-11-03T00:58:47.062Z,13.80
2018-11-03T01:01:17.219Z,13.80
2018-11-03T01:03:47.037Z,13.90
2018-11-03T01:06:17.516Z,13.80
2018-11-03T01:08:47.497Z,13.80
2018-11-03T01:11:17.538Z,13.70
2018-11-03T01:13:48.096Z,13.70
2018-11-03T01:16:19.737Z,13.70
2018-11-03T01:18:50.514Z,13.70
2018-11-03T01:21:20.495Z,13.80
2018-11-03T01:23:51.941Z,13.80
2018-11-03T01:26:21.794Z,13.80
2018-11-03T01:28:51.695Z,13.70
2018-11-03T01:31:21.460Z,13.70
2018-11-03T01:33:51.556Z,13.60
2018-11-03T01:36:21.978Z,13.60
2018-11-03T01:38:51.756Z,13.60
2018-11-03T01:41:21.776Z,13.60
2018-11-03T01:43:52.034Z,13.60
2018-11-03T01:46:21.894Z,13.60
2018-11-03T01:48:51.974Z,13.60
2018-11-03T01:51:22.194Z,13.60
2018-11-03T01:53:52.015Z,13.60
2018-11-03T01:56:21.894Z,13.60
2018-11-03T01:58:51.955Z,13.60
2018-11-03T02:01:22.303Z,13.60
2018-11-03T02:03:52.145Z,13.60
2018-11-03T02:06:22.223Z,13.60
2018-11-03T02:08:52.263Z,13.60
2018-11-03T02:11:22.362Z,13.60
2018-11-03T02:13:52.388Z,13.60
2018-11-03T02:16:22.543Z,13.60
2018-11-03T02:18:52.403Z,13.60
2018-11-03T02:21:22.670Z,13.60
2018-11-03T02:23:52.563Z,13.60
2018-11-03T02:26:22.463Z,13.60
2018-11-03T02:28:52.324Z,13.50
2018-11-03T02:31:22.390Z,13.60
2018-11-03T02:33:52.543Z,13.50
2018-11-03T02:36:22.573Z,13.60
2018-11-03T02:38:52.523Z,13.60
2018-11-03T02:41:22.723Z,13.50
2018-11-03T02:43:52.791Z,13.50
2018-11-03T02:46:22.726Z,13.50
2018-11-03T02:48:52.623Z,13.50
2018-11-03T02:51:22.642Z,13.50
2018-11-03T02:53:52.840Z,13.60
2018-11-03T02:56:22.783Z,13.50
2018-11-03T02:58:52.563Z,13.50
2018-11-03T03:01:22.635Z,13.60
2018-11-03T03:03:52.434Z,13.60
2018-11-03T03:06:22.582Z,13.60
2018-11-03T03:08:52.415Z,13.60
2018-11-03T03:11:22.716Z,13.60
2018-11-03T03:13:52.657Z,13.60
2018-11-03T03:16:22.610Z,13.60
2018-11-03T03:18:53.254Z,13.60
2018-11-03T03:21:23.254Z,13.60
2018-11-03T03:23:53.094Z,13.50
2018-11-03T03:26:23.495Z,13.50
2018-11-03T03:28:53.406Z,13.50
2018-11-03T03:31:23.375Z,13.50
2018-11-03T03:33:53.374Z,13.50
2018-11-03T03:36:23.174Z,13.50
2018-11-03T03:38:53.255Z,13.50
2018-11-03T03:41:23.195Z,13.50
2018-11-03T03:43:53.117Z,13.50
2018-11-03T03:46:23.175Z,13.50
2018-11-03T03:48:53.276Z,13.50
2018-11-03T03:51:23.216Z,13.50
2018-11-03T03:53:53.355Z,13.50
2018-11-03T03:56:23.536Z,13.50
2018-11-03T03:58:54.856Z,13.50
2018-11-03T04:01:25.160Z,13.50
2018-11-03T04:03:54.961Z,13.50
2018-11-03T04:06:25.075Z,13.50
2018-11-03T04:08:55.116Z,13.50
2018-11-03T04:11:24.976Z,13.60
2018-11-03T04:13:55.196Z,13.60
2018-11-03T04:16:25.436Z,13.60
2018-11-03T04:18:55.416Z,13.60
2018-11-03T04:21:33.376Z,13.60
2018-11-03T04:24:03.296Z,13.60
2018-11-03T04:26:33.176Z,13.60
2018-11-03T04:29:03.199Z,13.60
2018-11-03T04:31:33.097Z,13.60
2018-11-03T04:34:02.900Z,13.60
2018-11-03T04:36:33.096Z,13.60
2018-11-03T04:39:04.644Z,13.60
2018-11-03T04:41:34.516Z,13.60
2018-11-03T04:44:04.636Z,13.60
2018-11-03T04:46:34.656Z,13.50
2018-11-03T04:49:05.435Z,13.50
2018-11-03T04:51:37.436Z,13.50
2018-11-03T04:54:07.220Z,13.50
2018-11-03T04:56:36.937Z,13.60
2018-11-03T04:59:08.317Z,13.50
2018-11-03T05:01:38.392Z,13.50
2018-11-03T05:04:08.435Z,13.60
2018-11-03T05:06:38.562Z,13.60
2018-11-03T05:09:10.434Z,13.50
2018-11-03T05:11:40.616Z,13.50
2018-11-03T05:14:11.295Z,13.50
2018-11-03T05:16:41.215Z,13.50
2018-11-03T05:19:11.174Z,13.50
2018-11-03T05:21:41.135Z,13.50
2018-11-03T05:24:11.275Z,13.50
2018-11-03T05:26:41.436Z,13.50
2018-11-03T05:29:11.195Z,13.40
2018-11-03T05:31:41.195Z,13.40
2018-11-03T05:34:11.614Z,13.40
2018-11-03T05:36:41.874Z,13.40
2018-11-03T05:39:12.956Z,13.40
2018-11-03T05:41:43.654Z,13.40
2018-11-03T05:44:14.175Z,13.40
2018-11-03T05:46:44.821Z,13.40
2018-11-03T05:49:14.515Z,13.40
2018-11-03T05:51:44.795Z,13.40
2018-11-03T05:54:14.555Z,13.50
2018-11-03T05:56:44.436Z,13.50
2018-11-03T05:59:14.395Z,13.50
2018-11-03T06:01:44.481Z,13.50
2018-11-03T06:04:14.323Z,13.50
2018-11-03T06:06:44.121Z,13.50
2018-11-03T06:09:14.064Z,13.60
2018-11-03T06:11:44.141Z,13.60
2018-11-03T06:14:14.204Z,13.60
2018-11-03T06:16:43.981Z,13.60
2018-11-03T06:19:14.108Z,13.60
2018-11-03T06:21:43.922Z,13.60
2018-11-03T06:24:14.021Z,13.70
2018-11-03T06:26:44.003Z,13.60
2018-11-03T06:29:13.781Z,13.60
2018-11-03T06:31:43.861Z,13.60
2018-11-03T06:34:13.862Z,13.60
2018-11-03T06:36:43.701Z,13.60
2018-11-03T06:39:13.481Z,13.60
2018-11-03T06:41:43.521Z,13.70
2018-11-03T06:44:13.541Z,13.70
2018-11-03T06:46:43.441Z,13.60
2018-11-03T06:49:18.222Z,13.60
2018-11-03T06:51:48.583Z,13.60
2018-11-03T06:54:18.701Z,13.70
2018-11-03T06:56:48.681Z,13.70
2018-11-03T06:59:19.201Z,13.70
2018-11-03T07:01:49.197Z,13.70
2018-11-03T07:04:19.195Z,13.80
2018-11-03T07:06:49.055Z,13.70
2018-11-03T07:09:18.875Z,13.80
2018-11-03T07:11:48.958Z,13.80
2018-11-03T07:14:18.974Z,13.80
2018-11-03T07:16:50.399Z,13.80
2018-11-03T07:19:20.355Z,13.80
2018-11-03T07:21:50.299Z,13.80
2018-11-03T07:24:20.015Z,13.90
2018-11-03T07:26:49.974Z,13.90
2018-11-03T07:29:20.575Z,13.90
2018-11-03T07:31:50.507Z,14.00
2018-11-03T07:34:20.494Z,13.90
2018-11-03T07:36:50.202Z,14.00
2018-11-03T07:39:20.155Z,14.00
2018-11-03T07:41:51.536Z,14.00
2018-11-03T07:44:25.438Z,14.00
2018-11-03T07:46:55.236Z,14.00
2018-11-03T07:49:25.035Z,14.00
2018-11-03T07:51:55.276Z,14.00
2018-11-03T07:54:27.922Z,14.00
2018-11-03T07:56:58.066Z,14.00
2018-11-03T07:59:27.904Z,14.00
2018-11-03T08:01:57.898Z,14.00
2018-11-03T08:04:32.337Z,14.00
2018-11-03T08:07:02.542Z,14.10
2018-11-03T08:09:32.677Z,14.10
2018-11-03T08:12:02.604Z,14.10
2018-11-03T08:14:32.432Z,14.20
2018-11-03T08:17:02.404Z,14.20
2018-11-03T08:19:32.323Z,14.20
2018-11-03T08:22:01.917Z,14.20
2018-11-03T08:24:31.472Z,14.20
2018-11-03T08:27:01.008Z,14.20
2018-11-03T08:29:31.001Z,14.20
2018-11-03T08:32:00.901Z,14.20
2018-11-03T08:34:30.880Z,14.20
2018-11-03T08:37:01.257Z,14.20
2018-11-03T08:39:31.465Z,14.30
2018-11-03T08:42:01.117Z,14.30
2018-11-03T08:44:33.097Z,14.30
2018-11-03T08:47:03.037Z,14.30
2018-11-03T08:49:32.935Z,14.30
2018-11-03T08:52:02.736Z,14.20
2018-11-03T08:54:32.456Z,14.20
2018-11-03T08:57:02.336Z,14.20
2018-11-03T08:59:33.299Z,14.20
2018-11-03T09:02:03.234Z,14.20
2018-11-03T09:04:33.255Z,14.20
2018-11-03T09:07:03.600Z,14.20
2018-11-03T09:09:33.615Z,14.20
2018-11-03T09:12:03.294Z,14.30
2018-11-03T09:14:33.123Z,14.20
2018-11-03T09:17:07.365Z,14.30
2018-11-03T09:19:38.015Z,14.30
2018-11-03T09:22:08.095Z,14.30
2018-11-03T09:24:38.215Z,14.20
2018-11-03T09:27:08.637Z,14.20
2018-11-03T09:29:38.695Z,14.20
2018-11-03T09:32:08.775Z,14.20
2018-11-03T09:34:38.794Z,14.20
2018-11-03T09:37:08.954Z,14.30
2018-11-03T09:39:38.698Z,14.30
2018-11-03T09:42:08.514Z,14.30
2018-11-03T09:44:38.502Z,14.30
2018-11-03T09:47:09.615Z,14.30
2018-11-03T09:49:39.675Z,14.30
2018-11-03T09:52:09.775Z,14.30
2018-11-03T09:54:39.435Z,14.40
2018-11-03T09:57:09.596Z,14.40
2018-11-03T10:02:19.757Z,14.40
2018-11-03T10:04:49.485Z,14.40
2018-11-03T10:07:20.655Z,14.40
2018-11-03T10:09:52.117Z,14.40
2018-11-03T10:12:22.148Z,14.40
2018-11-03T10:14:52.060Z,14.50
2018-11-03T10:17:22.076Z,14.50
2018-11-03T10:19:53.416Z,14.50
2018-11-03T10:22:23.677Z,14.50
2018-11-03T10:24:53.496Z,14.60
2018-11-03T10:27:23.258Z,14.60
2018-11-03T10:29:54.057Z,14.50
2018-11-03T10:32:23.557Z,14.50
2018-11-03T10:35:05.497Z,14.50
2018-11-03T10:37:35.178Z,14.50
2018-11-03T10:40:05.518Z,14.50
2018-11-03T10:42:35.177Z,14.60
2018-11-03T10:45:07.336Z,14.60
2018-11-03T10:47:40.962Z,14.60
2018-11-03T10:50:13.996Z,14.60
2018-11-03T10:52:44.298Z,14.70
2018-11-03T10:55:17.876Z,14.70
2018-11-03T10:57:47.757Z,14.70
2018-11-03T11:00:24.237Z,14.80
2018-11-03T11:02:59.696Z,14.80
2018-11-03T11:08:16.016Z,14.80
2018-11-03T11:10:51.056Z,14.80
2018-11-03T11:13:22.894Z,14.80
2018-11-03T11:15:54.715Z,14.80
2018-11-03T11:18:24.336Z,14.90
2018-11-03T11:20:54.294Z,14.90
2018-11-03T11:23:24.858Z,14.90
2018-11-03T11:25:58.634Z,14.90
2018-11-03T11:31:33.669Z,14.90
2018-11-03T11:34:03.335Z,15.10
2018-11-03T11:36:38.635Z,15.10
2018-11-03T11:39:08.936Z,15.20
2018-11-03T11:41:38.636Z,15.30
2018-11-03T11:44:09.707Z,15.30
2018-11-03T11:46:39.815Z,15.30
2018-11-03T11:49:09.516Z,15.30
2018-11-03T11:51:39.355Z,15.30
2018-11-03T11:54:09.946Z,15.30
2018-11-03T11:56:39.454Z,15.40
2018-11-03T11:59:09.207Z,15.40
2018-11-03T12:01:39.419Z,15.40
2018-11-03T12:04:09.720Z,15.50
2018-11-03T12:06:39.618Z,15.50
2018-11-03T12:09:09.881Z,15.60
2018-11-03T12:11:39.640Z,15.60
2018-11-03T12:14:09.860Z,15.60
2018-11-03T12:16:39.399Z,15.70
2018-11-03T12:19:10.459Z,15.60
2018-11-03T12:21:40.208Z,15.60
2018-11-03T12:24:10.061Z,15.60
2018-11-03T12:26:39.779Z,15.50
2018-11-03T12:29:09.681Z,15.40
2018-11-03T12:31:39.979Z,15.40
2018-11-03T12:34:09.519Z,15.50
2018-11-03T12:36:41.379Z,15.50
2018-11-03T12:39:11.501Z,15.50
2018-11-03T12:41:41.640Z,15.50
2018-11-03T12:44:11.417Z,15.50
2018-11-03T12:46:41.499Z,15.50
2018-11-03T12:49:11.201Z,15.50
2018-11-03T12:51:40.820Z,15.40
2018-11-03T12:54:11.060Z,15.40
2018-11-03T12:56:47.841Z,15.50
2018-11-03T12:59:19.145Z,15.40
2018-11-03T13:02:00.139Z,15.40
2018-11-03T13:04:29.839Z,15.40
2018-11-03T13:07:01.859Z,15.40
2018-11-03T13:09:31.722Z,15.40
2018-11-03T13:12:01.444Z,15.40
2018-11-03T13:14:31.179Z,15.40
2018-11-03T13:17:00.859Z,15.40
2018-11-03T13:22:08.438Z,15.30
2018-11-03T13:24:38.198Z,15.30
2018-11-03T13:27:07.978Z,15.30
2018-11-03T13:29:38.891Z,15.30
2018-11-03T13:32:08.520Z,15.40
2018-11-03T13:34:50.637Z,15.40
2018-11-03T13:37:20.458Z,15.40
2018-11-03T13:39:50.097Z,15.40
2018-11-03T13:44:53.598Z,15.40
2018-11-03T13:47:26.099Z,15.30
2018-11-03T13:49:55.768Z,15.30
2018-11-03T13:52:25.420Z,15.30
2018-11-03T13:54:55.100Z,15.30
2018-11-03T13:57:25.003Z,15.30
2018-11-03T13:59:54.620Z,15.40
2018-11-03T14:02:24.717Z,15.40
2018-11-03T14:04:54.419Z,15.40
2018-11-03T14:07:23.960Z,15.50
2018-11-03T14:09:53.401Z,15.40
2018-11-03T14:12:22.803Z,15.40
2018-11-03T14:14:52.199Z,15.30
2018-11-03T14:17:21.993Z,15.20
2018-11-03T14:19:51.481Z,15.10
2018-11-03T14:22:21.039Z,15.10
2018-11-03T14:24:51.029Z,15.00
2018-11-03T14:27:20.818Z,14.90
2018-11-03T14:29:50.640Z,14.90
2018-11-03T14:32:20.140Z,14.90
2018-11-03T14:34:49.681Z,14.90
2018-11-03T14:37:19.217Z,14.80
2018-11-03T14:39:49.421Z,14.80
2018-11-03T14:42:19.981Z,14.80
2018-11-03T14:44:49.768Z,14.70
2018-11-03T14:47:19.779Z,14.60
2018-11-03T14:49:53.624Z,14.60
2018-11-03T14:52:22.956Z,14.60
2018-11-03T14:54:52.485Z,14.50
2018-11-03T14:57:32.319Z,14.50
2018-11-03T15:00:01.983Z,14.50
2018-11-03T15:02:33.998Z,14.50
2018-11-03T15:05:03.489Z,14.50
2018-11-03T15:07:40.435Z,14.50
2018-11-03T15:10:11.157Z,14.50
2018-11-03T15:12:41.295Z,14.50
2018-11-03T15:15:12.875Z,14.40
2018-11-03T15:17:42.357Z,14.40
2018-11-03T15:20:12.435Z,14.40
2018-11-03T15:22:42.735Z,14.40
2018-11-03T15:25:12.398Z,14.40
2018-11-03T15:27:42.296Z,14.30
2018-11-03T15:30:13.376Z,14.30
2018-11-03T15:32:43.314Z,14.30
2018-11-03T15:35:13.601Z,14.30
2018-11-03T15:37:45.238Z,14.30
2018-11-03T15:40:15.857Z,14.30
2018-11-03T15:42:45.843Z,14.30
2018-11-03T15:45:17.436Z,14.30
2018-11-03T15:47:47.717Z,14.30
2018-11-03T15:50:17.776Z,14.30
2018-11-03T15:52:47.895Z,14.30
2018-11-03T15:55:17.415Z,14.30
2018-11-03T15:57:46.914Z,14.40
2018-11-03T16:00:18.876Z,14.40
2018-11-03T16:02:48.860Z,14.30
2018-11-03T16:05:18.447Z,14.40
2018-11-03T16:07:48.477Z,14.40
2018-11-03T16:10:18.038Z,14.40
2018-11-03T16:12:51.856Z,14.30
2018-11-03T16:15:21.515Z,14.30
2018-11-03T16:17:51.120Z,14.30
2018-11-03T16:20:20.596Z,14.40
2018-11-03T16:22:56.798Z,14.30
2018-11-03T16:25:26.416Z,14.30
2018-11-03T16:27:55.956Z,14.20
2018-11-03T16:30:27.796Z,14.10
2018-11-03T16:32:57.377Z,14.10
2018-11-03T16:35:26.998Z,14.10
2018-11-03T16:37:56.416Z,14.10
2018-11-03T16:40:25.919Z,14.10
2018-11-03T16:42:55.459Z,14.10
2018-11-03T16:45:24.960Z,14.00
2018-11-03T16:50:28.700Z,14.00
2018-11-03T16:52:58.379Z,13.90
2018-11-03T16:55:28.070Z,13.90
2018-11-03T16:57:57.600Z,13.90
2018-11-03T17:00:27.800Z,13.90
2018-11-03T17:02:57.336Z,13.90
2018-11-03T17:05:26.794Z,13.80
2018-11-03T17:07:56.701Z,13.80
2018-11-03T17:10:26.311Z,13.80
2018-11-03T17:12:55.926Z,13.80
2018-11-03T17:15:38.433Z,13.80
2018-11-03T17:18:07.944Z,13.80
2018-11-03T17:20:37.476Z,13.70
2018-11-03T17:23:07.036Z,13.80
2018-11-03T17:25:36.697Z,13.70
2018-11-03T17:28:06.276Z,13.70
2018-11-03T17:30:35.995Z,13.60
2018-11-03T17:33:05.456Z,13.60
2018-11-03T17:35:35.015Z,13.60
2018-11-03T17:38:06.157Z,13.60
2018-11-03T17:40:35.702Z,13.60
2018-11-03T17:43:06.761Z,13.50
2018-11-03T17:45:36.296Z,13.50
2018-11-03T17:48:06.014Z,13.40
2018-11-03T17:50:35.556Z,13.40
2018-11-03T17:53:05.636Z,13.30
2018-11-03T17:55:35.174Z,13.30
2018-11-03T17:58:04.736Z,13.30
2018-11-03T18:00:36.661Z,13.30
2018-11-03T18:03:06.559Z,13.30
2018-11-03T18:05:36.119Z,13.30
2018-11-03T18:08:05.776Z,13.30
2018-11-03T18:10:37.378Z,13.30
2018-11-03T18:13:06.896Z,13.40
2018-11-03T18:15:41.245Z,13.40
2018-11-03T18:18:15.136Z,13.40
2018-11-03T18:20:44.802Z,13.40
2018-11-03T18:23:14.398Z,13.40
2018-11-03T18:25:44.916Z,13.40
2018-11-03T18:28:14.957Z,13.40
2018-11-03T18:30:44.760Z,13.30
2018-11-03T18:33:15.292Z,13.40
2018-11-03T18:35:45.298Z,13.30
2018-11-03T18:38:15.757Z,13.30
2018-11-03T18:40:47.660Z,13.20
2018-11-03T18:43:17.381Z,13.20
2018-11-03T18:45:47.119Z,13.10
2018-11-03T18:48:16.820Z,13.10
2018-11-03T18:50:46.739Z,13.10
2018-11-03T18:53:16.218Z,13.10
2018-11-03T18:55:46.218Z,13.10
2018-11-03T18:58:15.798Z,13.20
2018-11-03T19:00:45.398Z,13.20
2018-11-03T19:03:15.195Z,13.20
2018-11-03T19:05:44.991Z,13.20
2018-11-03T19:08:16.586Z,13.30
2018-11-03T19:10:47.438Z,13.20
2018-11-03T19:13:19.212Z,13.20
2018-11-03T19:15:50.558Z,13.10
2018-11-03T19:18:22.815Z,13.00
2018-11-03T19:20:52.577Z,13.00
2018-11-03T19:23:23.747Z,12.90
2018-11-03T19:25:53.775Z,12.80
2018-11-03T19:28:23.416Z,12.80
2018-11-03T19:30:53.155Z,12.80
2018-11-03T19:33:22.955Z,12.80
2018-11-03T19:35:52.775Z,12.80
2018-11-03T19:38:22.380Z,12.90
2018-11-03T19:40:56.352Z,12.90
2018-11-03T19:43:25.924Z,12.90
2018-11-03T19:45:56.147Z,12.90
2018-11-03T19:48:26.151Z,13.00
2018-11-03T19:50:56.055Z,13.00
2018-11-03T19:53:25.815Z,13.00
2018-11-03T19:55:55.870Z,12.90
2018-11-03T19:58:25.816Z,13.00
2018-11-03T20:00:55.726Z,12.90
2018-11-03T20:03:25.475Z,13.00
2018-11-03T20:18:55.300Z,13.00
2018-11-03T20:21:26.015Z,12.90
2018-11-03T20:23:55.619Z,13.00
2018-11-03T20:26:25.841Z,13.00
2018-11-03T20:28:59.676Z,13.00
2018-11-03T20:31:29.287Z,13.00
2018-11-03T20:33:59.460Z,13.00
2018-11-03T20:36:28.945Z,13.00
2018-11-03T20:39:02.026Z,13.00
2018-11-03T20:41:32.296Z,13.10
2018-11-03T20:44:03.542Z,13.10
2018-11-03T20:46:37.282Z,13.10
2018-11-03T20:49:10.143Z,13.10
2018-11-03T20:51:41.783Z,13.00
2018-11-03T20:54:11.702Z,13.00
2018-11-03T20:56:44.086Z,13.00
2018-11-03T20:59:14.144Z,13.00
2018-11-03T21:01:44.161Z,13.00
2018-11-03T21:04:14.598Z,13.00
2018-11-03T21:06:44.628Z,13.00
2018-11-03T21:09:14.178Z,13.00
2018-11-03T21:11:44.349Z,13.00
2018-11-03T21:14:16.118Z,13.00
2018-11-03T21:16:51.843Z,13.00
2018-11-03T21:19:25.943Z,13.00
2018-11-03T21:21:58.517Z,13.00
2018-11-03T21:24:28.620Z,13.00
2018-11-03T21:26:58.446Z,13.00
2018-11-03T21:29:28.702Z,13.00
2018-11-03T21:31:58.497Z,13.00
2018-11-03T21:34:32.817Z,13.10
2018-11-03T21:37:02.496Z,13.00
2018-11-03T21:39:32.157Z,13.00
2018-11-03T21:42:02.416Z,13.10
2018-11-03T21:44:32.416Z,13.20
2018-11-03T21:47:03.880Z,13.20
2018-11-03T21:49:34.519Z,13.20
2018-11-03T21:52:04.559Z,13.20
2018-11-03T21:54:34.664Z,13.20
2018-11-03T21:57:04.780Z,13.20
2018-11-03T21:59:34.885Z,13.20
2018-11-03T22:02:06.197Z,13.10
2018-11-03T22:04:35.942Z,13.10
2018-11-03T22:07:07.299Z,13.10
2018-11-03T22:09:38.255Z,13.10
2018-11-03T22:12:08.840Z,13.10
2018-11-03T22:14:38.801Z,13.10
2018-11-03T22:17:09.385Z,13.10
2018-11-03T22:19:39.601Z,13.10
2018-11-03T22:22:09.679Z,13.10
2018-11-03T22:24:39.439Z,13.10
2018-11-03T22:27:09.647Z,13.10
2018-11-03T22:29:39.388Z,13.00
2018-11-03T22:32:08.899Z,13.00
2018-11-03T22:34:38.500Z,13.10
2018-11-03T22:37:12.066Z,13.00
2018-11-03T22:39:41.777Z,13.10
2018-11-03T22:42:11.849Z,13.10
2018-11-03T22:44:41.357Z,13.10
2018-11-03T22:47:11.499Z,13.10
2018-11-03T22:49:41.177Z,13.10
2018-11-03T22:52:10.919Z,13.10
2018-11-03T22:57:14.992Z,13.10
2018-11-03T22:59:44.896Z,13.10
2018-11-03T23:02:14.823Z,13.10
2018-11-03T23:04:44.905Z,13.10
2018-11-03T23:07:15.263Z,13.10
2018-11-03T23:09:45.043Z,13.10
2018-11-03T23:12:15.206Z,13.00
2018-11-03T23:14:44.945Z,13.10
2018-11-03T23:17:14.722Z,13.10
2018-11-03T23:19:51.820Z,13.10
2018-11-03T23:22:21.516Z,13.10
2018-11-03T23:24:51.336Z,13.10
2018-11-03T23:27:20.958Z,13.10
2018-11-03T23:29:50.652Z,13.00
2018-11-03T23:32:20.236Z,13.00
2018-11-03T23:34:50.699Z,13.00
2018-11-03T23:37:20.577Z,13.00
2018-11-03T23:39:50.356Z,13.00
2018-11-03T23:42:20.179Z,13.00
2018-11-03T23:44:50.038Z,13.00
2018-11-03T23:47:19.756Z,13.00
2018-11-03T23:49:56.075Z,13.10
2018-11-03T23:52:30.976Z,13.00
2018-11-03T23:55:00.556Z,13.10
2018-11-03T23:57:42.096Z,13.10
